Time;durP1;ratioP1;P1;durP2;ratioP2;P2;SDS_P1;SDS_P2;PMS_P1;PMS_P2;Temp;Humidity;BMP_temperature;BMP_pressure;BME280_temperature;BME280_humidity;BME280_pressure;Samples;Min_cycle;Max_cycle;Signal;HPM_P1;HPM_P2
2023/01/19 00:01:49;;;;;;;45.88;6.20;;;;;;;11.00;41.71;92646.75;4998802;28;20527;-80
2023/01/19 00:04:14;;;;;;;25.13;5.18;;;;;;;11.15;41.79;92658.50;4999482;28;20523;-78
2023/01/19 00:06:40;;;;;;;39.38;4.80;;;;;;;11.26;41.40;92677.38;4999637;28;20033;-78
2023/01/19 00:09:05;;;;;;;45.13;7.20;;;;;;;11.26;41.58;92685.38;4981517;28;20034;-78
2023/01/19 00:11:30;;;;;;;35.90;6.75;;;;;;;11.06;41.67;92645.38;4997444;28;20060;-78
2023/01/19 00:13:57;;;;;;;27.58;4.63;;;;;;;11.24;41.33;92683.06;4994812;28;20042;-80
2023/01/19 00:16:23;;;;;;;29.67;6.53;;;;;;;11.20;41.54;92657.50;4999578;28;20521;-79
2023/01/19 00:18:50;;;;;;;46.97;6.68;;;;;;;11.20;41.51;92662.81;5000115;28;20026;-79
2023/01/19 00:21:16;;;;;;;26.42;4.57;;;;;;;11.35;41.18;92694.72;4997879;28;20041;-79
2023/01/19 00:23:42;;;;;;;41.90;6.43;;;;;;;11.26;41.69;92662.19;4999861;28;20088;-79
2023/01/19 00:26:09;;;;;;;41.22;6.65;;;;;;;11.22;41.32;92711.13;4971450;28;20829;-79
2023/01/19 00:28:35;;;;;;;37.67;5.78;;;;;;;11.22;41.61;92689.84;4998986;28;20465;-78
2023/01/19 00:31:00;;;;;;;33.03;4.72;;;;;;;11.24;41.33;92667.09;4998132;28;20026;-78
2023/01/19 00:33:26;;;;;;;20.70;4.78;;;;;;;11.29;41.28;92684.69;4971180;28;20025;-78
2023/01/19 00:35:53;;;;;;;32.78;5.63;;;;;;;11.26;41.51;92709.31;4998801;28;20132;-78
2023/01/19 00:38:20;;;;;;;27.65;4.72;;;;;;;11.08;41.30;92693.69;4999425;28;20026;-79
2023/01/19 00:40:46;;;;;;;35.80;5.90;;;;;;;11.08;41.47;92696.38;4997308;28;20441;-79
2023/01/19 00:43:11;;;;;;;38.55;6.38;;;;;;;11.08;41.36;92696.38;4972150;28;20084;-78
2023/01/19 00:45:36;;;;;;;30.35;6.20;;;;;;;11.22;41.17;92705.81;4999092;28;20116;-79
2023/01/19 00:48:05;;;;;;;34.03;6.35;;;;;;;11.19;41.40;92728.56;4998627;28;20038;-79
2023/01/19 00:50:31;;;;;;;43.03;6.10;;;;;;;10.93;41.33;92661.75;4998312;28;20573;-80
2023/01/19 00:53:01;;;;;;;41.65;5.82;;;;;;;11.21;40.97;92726.31;4981116;28;20406;-78
2023/01/19 00:55:29;;;;;;;32.63;4.97;;;;;;;11.14;41.28;92707.53;4996972;28;20144;-78
2023/01/19 00:57:56;;;;;;;27.75;5.68;;;;;;;11.21;40.86;92734.31;4999142;28;20034;-79
2023/01/19 01:00:22;;;;;;;40.47;6.25;;;;;;;11.14;41.26;92697.66;4993637;28;20629;-79
2023/01/19 01:02:49;;;;;;;41.72;7.40;;;;;;;11.07;40.96;92680.72;4999366;28;20596;-79
2023/01/19 01:05:15;;;;;;;48.17;8.25;;;;;;;11.16;40.78;92698.06;4997368;28;20030;-80
2023/01/19 01:07:41;;;;;;;29.55;5.85;;;;;;;11.14;40.97;92699.53;4998571;28;20041;-79
2023/01/19 01:10:08;;;;;;;31.50;5.00;;;;;;;11.38;40.64;92735.88;4998216;28;20021;-78
2023/01/19 01:12:33;;;;;;;32.05;5.60;;;;;;;11.30;40.64;92702.19;4998545;28;20038;-79
2023/01/19 01:14:59;;;;;;;36.90;6.10;;;;;;;11.32;41.02;92679.44;4995932;28;20049;-80
2023/01/19 01:17:24;;;;;;;34.40;5.95;;;;;;;11.23;40.65;92654.13;5000342;28;20049;-79
2023/01/19 01:19:51;;;;;;;33.13;4.72;;;;;;;11.41;40.55;92693.34;4997113;28;20115;-79
2023/01/19 01:22:16;;;;;;;25.85;5.07;;;;;;;11.36;40.69;92738.88;4996935;28;20501;-80
2023/01/19 01:24:41;;;;;;;39.00;5.97;;;;;;;11.23;40.51;92686.06;4997572;28;20045;-80
2023/01/19 01:27:07;;;;;;;42.22;4.80;;;;;;;11.11;40.05;92666.41;4996478;28;20042;-80
2023/01/19 01:29:34;;;;;;;44.80;6.72;;;;;;;11.24;40.24;92682.28;4999593;28;20064;-79
2023/01/19 01:32:00;;;;;;;42.67;5.60;;;;;;;11.19;40.25;92686.00;4996286;28;20096;-80
2023/01/19 01:34:25;;;;;;;37.15;5.95;;;;;;;11.32;39.86;92721.25;4997771;28;20095;-79
2023/01/19 01:36:51;;;;;;;30.95;5.05;;;;;;;11.17;40.37;92712.94;4997453;28;20034;-80
2023/01/19 01:39:17;;;;;;;27.17;4.07;;;;;;;11.39;40.38;92735.53;5001537;28;20056;-80
2023/01/19 01:41:42;;;;;;;33.95;5.78;;;;;;;11.25;40.14;92726.44;5000157;28;20498;-79
2023/01/19 01:44:48;;;;;;;32.70;4.45;;;;;;;11.34;40.25;92735.00;5002384;28;20524;-80
2023/01/19 01:47:34;;;;;;;28.67;3.90;;;;;;;11.18;40.39;92690.53;4999649;28;20390;-79
2023/01/19 01:50:09;;;;;;;26.33;4.25;;;;;;;11.28;39.87;92709.75;4972976;28;20041;-80
2023/01/19 01:52:39;;;;;;;38.85;3.97;;;;;;;11.50;39.43;92733.88;5001998;28;20066;-79
2023/01/19 01:55:06;;;;;;;28.33;4.72;;;;;;;11.29;39.98;92692.69;4997293;28;20652;-81
2023/01/19 01:57:37;;;;;;;32.58;5.82;;;;;;;11.32;39.75;92695.41;5002983;28;20036;-80
2023/01/19 02:00:03;;;;;;;37.15;5.45;;;;;;;11.10;40.16;92688.78;4998179;28;20058;-78
2023/01/19 02:02:50;;;;;;;23.02;3.53;;;;;;;11.36;39.77;92738.88;5002866;28;20045;-79
2023/01/19 02:05:28;;;;;;;20.48;4.22;;;;;;;11.21;39.84;92725.53;5000954;28;20651;-79
2023/01/19 02:13:32;;;;;;;;;;;;;;;11.42;39.46;92742.03;5003125;28;20049;-80
2023/01/19 02:16:01;;;;;;;27.85;4.07;;;;;;;11.09;39.49;92663.31;5000704;28;19920;-78
2023/01/19 02:18:29;;;;;;;25.17;4.72;;;;;;;11.05;39.82;92672.34;4977182;28;20088;-79
2023/01/19 02:21:17;;;;;;;21.45;3.70;;;;;;;11.25;39.60;92737.06;5001910;28;20026;-78
2023/01/19 02:23:46;;;;;;;41.92;5.70;;;;;;;10.87;39.93;92669.22;5001109;28;20041;-78
2023/01/19 02:26:22;;;;;;;27.25;4.15;;;;;;;11.17;39.92;92677.56;5003496;28;20038;-78
2023/01/19 02:28:52;;;;;;;30.05;3.72;;;;;;;11.33;39.31;92707.63;4998354;28;20850;-78
2023/01/19 02:31:18;;;;;;;34.83;3.20;;;;;;;11.33;39.55;92694.31;5001662;28;20124;-80
2023/01/19 02:33:44;;;;;;;28.90;4.55;;;;;;;11.25;39.50;92694.50;4998291;28;20057;-79
2023/01/19 02:36:12;;;;;;;29.42;5.35;;;;;;;11.40;38.73;92685.69;4975339;28;20133;-79
2023/01/19 02:38:38;;;;;;;21.42;3.33;;;;;;;11.29;39.10;92695.34;4972959;28;20591;-80
2023/01/19 02:41:06;;;;;;;23.92;4.05;;;;;;;11.47;38.99;92707.19;5000952;28;20030;-79
2023/01/19 02:43:33;;;;;;;31.13;4.68;;;;;;;11.17;39.51;92720.91;4999401;28;20480;-77
2023/01/19 02:45:59;;;;;;;18.58;3.85;;;;;;;11.29;39.15;92712.09;5001404;28;20030;-79
2023/01/19 02:48:24;;;;;;;39.45;5.40;;;;;;;11.35;39.08;92700.03;5001906;28;20567;-79
2023/01/19 02:50:59;;;;;;;33.60;5.28;;;;;;;11.54;38.59;92678.09;4998007;28;20518;-81
2023/01/19 02:53:31;;;;;;;26.25;3.78;;;;;;;11.68;38.58;92685.63;4997190;28;20679;-79
2023/01/19 02:56:35;;;;;;;26.50;3.83;;;;;;;11.45;39.12;92696.88;4999753;28;20050;-78
2023/01/19 02:59:22;;;;;;;30.80;3.97;;;;;;;11.40;39.22;92691.03;4999210;28;20595;-80
2023/01/19 03:01:59;;;;;;;35.05;4.50;;;;;;;11.22;39.75;92697.81;4975128;28;20054;-80
2023/01/19 03:04:43;;;;;;;24.55;4.00;;;;;;;11.34;39.54;92713.72;4974238;28;20099;-79
2023/01/19 03:07:46;;;;;;;29.75;5.10;;;;;;;11.31;39.09;92711.72;5000403;28;20026;-78
2023/01/19 03:10:45;;;;;;;26.85;3.65;;;;;;;11.41;38.94;92689.91;4998801;28;20782;-79
2023/01/19 03:13:16;;;;;;;22.40;4.68;;;;;;;11.45;38.45;92677.47;4999855;28;20037;-79
2023/01/19 03:16:08;;;;;;;29.42;5.20;;;;;;;11.29;38.69;92663.41;5000618;28;20060;-79
2023/01/19 03:18:36;;;;;;;23.70;4.03;;;;;;;11.32;38.58;92689.31;4997072;28;20048;-78
2023/01/19 03:21:05;;;;;;;23.10;3.95;;;;;;;11.13;38.55;92666.84;4983952;28;20030;-78
2023/01/19 03:23:34;;;;;;;26.02;4.35;;;;;;;11.00;39.30;92699.94;4973035;28;20119;-78
2023/01/19 03:26:02;;;;;;;31.83;4.15;;;;;;;11.06;38.83;92655.25;5000290;28;20037;-78
2023/01/19 03:28:29;;;;;;;31.40;4.38;;;;;;;11.08;38.99;92707.00;5000038;28;20048;-79
2023/01/19 03:31:04;;;;;;;27.20;4.55;;;;;;;10.94;38.99;92669.41;4998928;28;20037;-79
2023/01/19 03:33:35;;;;;;;29.13;3.97;;;;;;;10.86;39.04;92667.66;4999720;28;20042;-78
2023/01/19 03:36:06;;;;;;;29.65;3.53;;;;;;;11.14;38.85;92684.34;4999788;28;20632;-79
2023/01/19 03:38:36;;;;;;;31.45;4.93;;;;;;;10.99;38.94;92693.09;4998859;28;20564;-79
2023/01/19 03:41:08;;;;;;;37.17;5.30;;;;;;;11.12;38.82;92667.94;4998162;28;20044;-78
2023/01/19 03:43:35;;;;;;;63.65;6.57;;;;;;;11.02;38.72;92681.75;4981866;28;20034;-80
2023/01/19 03:46:03;;;;;;;32.10;4.93;;;;;;;11.08;39.11;92674.31;4970493;28;20666;-78
2023/01/19 03:48:30;;;;;;;38.03;6.07;;;;;;;10.77;38.58;92680.34;4999378;28;20033;-78
2023/01/19 03:50:55;;;;;;;34.47;6.75;;;;;;;10.96;38.91;92709.72;4998878;28;20883;-80
2023/01/19 03:53:23;;;;;;;35.30;4.60;;;;;;;10.94;38.79;92698.66;4999202;28;20108;-80
2023/01/19 03:55:50;;;;;;;33.85;5.45;;;;;;;11.11;38.54;92698.31;4998964;28;20037;-79
2023/01/19 03:58:16;;;;;;;31.08;5.78;;;;;;;10.78;38.47;92687.22;4998771;28;20485;-79
2023/01/19 04:00:41;;;;;;;26.70;4.45;;;;;;;11.05;38.45;92689.03;5000365;28;20056;-79
2023/01/19 04:03:13;;;;;;;34.53;6.00;;;;;;;10.84;38.70;92707.16;4997787;28;20046;-78
2023/01/19 04:05:38;;;;;;;39.35;5.70;;;;;;;10.92;38.55;92692.91;4998167;28;20057;-80
2023/01/19 04:08:04;;;;;;;49.78;5.97;;;;;;;10.98;38.43;92686.22;4975580;28;20034;-80
2023/01/19 04:10:30;;;;;;;38.60;7.05;;;;;;;11.10;38.14;92696.03;4999984;28;20092;-78
2023/01/19 04:12:57;;;;;;;47.70;5.90;;;;;;;11.12;37.64;92696.44;4998944;28;20037;-79
2023/01/19 04:15:23;;;;;;;34.88;6.22;;;;;;;11.30;37.35;92707.50;4997473;28;20022;-79
2023/01/19 04:17:48;;;;;;;43.85;6.53;;;;;;;11.27;37.86;92702.88;4999911;28;20135;-79
2023/01/19 04:20:14;;;;;;;46.45;6.57;;;;;;;11.20;37.61;92692.09;4996924;28;20034;-78
2023/01/19 04:22:39;;;;;;;33.17;5.45;;;;;;;11.01;37.68;92679.44;4998351;28;20029;-80
2023/01/19 04:25:06;;;;;;;40.35;6.82;;;;;;;11.06;37.79;92682.63;4997990;28;20084;-80
2023/01/19 04:27:31;;;;;;;40.15;6.25;;;;;;;11.16;37.77;92690.09;4982081;28;20663;-78
2023/01/19 04:29:56;;;;;;;37.35;6.40;;;;;;;11.15;37.47;92656.59;4999414;28;20041;-79
2023/01/19 04:32:22;;;;;;;41.45;7.18;;;;;;;11.04;37.59;92684.88;4999009;28;20058;-78
2023/01/19 04:34:47;;;;;;;40.53;6.10;;;;;;;11.14;37.19;92652.44;4980384;28;20180;-82
2023/01/19 04:37:13;;;;;;;48.00;8.18;;;;;;;11.36;36.97;92698.16;4997653;28;20131;-79
2023/01/19 04:39:38;;;;;;;43.17;7.85;;;;;;;11.10;37.64;92682.72;4997844;28;20450;-80
2023/01/19 04:42:05;;;;;;;53.53;7.28;;;;;;;11.02;37.65;92676.44;4998758;28;20076;-78
2023/01/19 04:44:30;;;;;;;43.70;6.95;;;;;;;11.10;37.31;92741.25;4998058;28;20092;-80
2023/01/19 04:46:56;;;;;;;47.42;7.47;;;;;;;11.30;37.33;92731.47;4999287;28;20025;-79
2023/01/19 04:49:21;;;;;;;46.03;7.95;;;;;;;11.23;37.29;92702.03;4979425;28;20041;-81
2023/01/19 04:51:47;;;;;;;48.17;8.07;;;;;;;11.41;36.84;92696.00;4997636;28;20402;-80
2023/01/19 04:54:12;;;;;;;51.78;6.90;;;;;;;11.41;36.43;92724.53;4999524;28;20037;-79
2023/01/19 04:56:39;;;;;;;35.92;7.90;;;;;;;11.51;36.02;92708.84;4997609;28;20034;-79
2023/01/19 04:59:05;;;;;;;42.15;7.75;;;;;;;11.50;36.59;92696.59;4997791;28;20038;-79
2023/01/19 05:01:30;;;;;;;40.80;6.97;;;;;;;11.40;36.53;92691.03;4998448;28;20044;-79
2023/01/19 05:03:59;;;;;;;48.95;8.23;;;;;;;11.34;36.57;92706.50;4978892;28;20026;-79
2023/01/19 05:06:25;;;;;;;51.72;7.45;;;;;;;11.46;36.48;92701.09;4999115;28;20422;-78
2023/01/19 05:08:50;;;;;;;52.13;9.05;;;;;;;10.86;36.95;92706.78;4997195;28;20045;-78
2023/01/19 05:11:16;;;;;;;32.22;6.90;;;;;;;11.27;36.88;92713.53;4998287;28;20037;-78
2023/01/19 05:13:41;;;;;;;45.00;6.57;;;;;;;11.36;36.70;92716.78;4997510;28;20034;-78
2023/01/19 05:16:07;;;;;;;43.28;6.75;;;;;;;11.00;36.51;92673.34;5000342;28;20025;-79
2023/01/19 05:18:35;;;;;;;35.70;6.95;;;;;;;11.35;36.63;92734.66;4996603;28;20021;-78
2023/01/19 05:21:04;;;;;;;37.17;6.85;;;;;;;11.37;36.78;92744.97;4980523;28;20069;-79
2023/01/19 05:23:31;;;;;;;43.67;6.32;;;;;;;11.40;36.20;92765.56;4997162;28;20061;-80
2023/01/19 05:25:59;;;;;;;34.95;5.97;;;;;;;11.34;36.48;92693.19;4999907;28;20064;-77
2023/01/19 05:28:26;;;;;;;41.47;6.10;;;;;;;11.24;37.09;92756.81;4997158;28;20064;-78
2023/01/19 05:30:51;;;;;;;34.53;7.00;;;;;;;11.34;36.58;92735.78;4999502;28;20021;-81
2023/01/19 05:33:16;;;;;;;42.67;6.55;;;;;;;11.31;36.65;92730.34;4997039;28;20046;-80
2023/01/19 05:35:42;;;;;;;33.28;6.47;;;;;;;11.44;36.87;92766.44;4998636;28;20049;-81
2023/01/19 05:38:08;;;;;;;38.85;7.25;;;;;;;11.38;36.29;92739.31;4980505;28;20709;-81
2023/01/19 05:40:33;;;;;;;29.65;6.43;;;;;;;11.47;36.37;92742.56;4997838;28;20551;-80
2023/01/19 05:42:59;;;;;;;48.78;8.70;;;;;;;11.64;36.02;92776.06;4997888;28;20029;-80
2023/01/19 05:45:27;;;;;;;43.15;8.60;;;;;;;11.44;36.02;92761.13;4999563;28;20030;-81
2023/01/19 05:47:55;;;;;;;38.88;7.43;;;;;;;11.45;36.32;92757.31;4978290;28;20129;-79
2023/01/19 05:50:21;;;;;;;36.10;7.18;;;;;;;11.46;35.99;92758.88;4997843;28;20117;-79
2023/01/19 05:52:47;;;;;;;46.55;7.57;;;;;;;11.45;36.38;92754.66;4996011;28;20362;-80
2023/01/19 05:55:13;;;;;;;44.85;8.27;;;;;;;11.31;36.69;92762.28;4998383;28;20038;-80
2023/01/19 05:57:38;;;;;;;45.53;7.20;;;;;;;11.47;36.29;92777.19;4995480;28;20105;-79
2023/01/19 06:00:04;;;;;;;36.67;6.97;;;;;;;11.50;36.00;92771.16;4998831;28;20124;-80
2023/01/19 06:02:30;;;;;;;35.92;7.40;;;;;;;11.71;35.87;92834.84;4996566;28;20494;-80
2023/01/19 06:04:55;;;;;;;33.30;6.20;;;;;;;11.46;36.12;92796.91;4978906;28;20073;-80
2023/01/19 06:07:21;;;;;;;41.45;8.98;;;;;;;11.16;36.10;92777.13;4998441;28;20037;-78
2023/01/19 06:09:47;;;;;;;44.55;6.97;;;;;;;11.30;36.19;92816.63;4970848;28;20361;-80
2023/01/19 06:12:13;;;;;;;43.67;6.97;;;;;;;11.32;36.08;92780.59;4998972;28;20045;-80
2023/01/19 06:14:39;;;;;;;48.28;7.97;;;;;;;11.37;36.39;92814.16;4997217;28;20041;-80
2023/01/19 06:17:05;;;;;;;35.35;7.63;;;;;;;11.52;35.97;92826.75;4998076;28;20038;-80
2023/01/19 06:19:31;;;;;;;41.05;6.93;;;;;;;11.34;36.49;92820.19;4996325;28;20065;-79
2023/01/19 06:21:57;;;;;;;39.38;7.43;;;;;;;11.70;36.31;92833.31;4998172;28;20132;-79
2023/01/19 06:24:24;;;;;;;37.45;8.45;;;;;;;11.62;36.21;92788.19;4972406;28;20029;-78
2023/01/19 06:26:49;;;;;;;39.97;7.57;;;;;;;11.66;36.33;92821.78;4982475;28;20026;-79
2023/01/19 06:29:15;;;;;;;47.35;7.88;;;;;;;11.70;35.62;92812.00;5000353;28;20390;-80
2023/01/19 06:31:41;;;;;;;41.00;8.70;;;;;;;11.36;35.91;92834.69;4996540;28;20034;-80
2023/01/19 06:34:07;;;;;;;38.95;7.47;;;;;;;11.50;36.10;92828.94;4999928;28;20549;-80
2023/01/19 06:36:33;;;;;;;43.92;7.22;;;;;;;11.37;36.02;92791.00;4997143;28;20021;-81
2023/01/19 06:39:02;;;;;;;45.00;8.35;;;;;;;11.77;35.69;92817.50;4999246;28;20525;-80
2023/01/19 06:41:28;;;;;;;38.65;9.02;;;;;;;11.60;35.69;92812.50;4992557;28;20058;-81
2023/01/19 06:43:54;;;;;;;49.85;8.13;;;;;;;11.57;35.67;92834.50;4980021;28;20038;-79
2023/01/19 06:46:19;;;;;;;42.40;7.90;;;;;;;11.29;35.81;92801.81;4997033;28;20053;-79
2023/01/19 06:48:44;;;;;;;36.10;9.68;;;;;;;11.53;35.47;92854.94;4999285;28;20028;-80
2023/01/19 06:51:10;;;;;;;37.13;7.30;;;;;;;11.41;35.71;92855.75;5000452;28;20506;-79
2023/01/19 06:53:35;;;;;;;43.38;8.40;;;;;;;11.38;35.79;92842.34;4980112;28;20125;-79
2023/01/19 06:56:01;;;;;;;46.28;8.48;;;;;;;11.23;35.85;92843.84;4982205;28;20188;-79
2023/01/19 06:58:28;;;;;;;43.55;7.95;;;;;;;11.55;35.64;92826.06;4978302;28;20065;-80
2023/01/19 07:00:54;;;;;;;45.05;8.32;;;;;;;11.58;35.90;92873.34;4981916;28;20576;-79
2023/01/19 07:03:21;;;;;;;40.75;8.35;;;;;;;11.57;35.01;92827.28;4998321;28;20079;-79
2023/01/19 07:05:50;;;;;;;53.50;9.77;;;;;;;11.48;35.45;92847.19;4996918;28;20080;-78
2023/01/19 07:08:15;;;;;;;52.42;8.13;;;;;;;11.75;35.12;92846.38;4994254;28;20591;-78
2023/01/19 07:10:41;;;;;;;42.92;7.35;;;;;;;12.02;35.13;92871.41;4999130;28;20034;-78
2023/01/19 07:13:06;;;;;;;40.72;7.75;;;;;;;11.73;35.10;92848.63;4999532;28;20026;-79
2023/01/19 07:15:31;;;;;;;52.70;9.55;;;;;;;11.68;34.78;92840.88;4997182;28;20063;-77
2023/01/19 07:17:58;;;;;;;36.83;7.72;;;;;;;12.03;34.90;92863.03;5000273;28;20533;-79
2023/01/19 07:20:23;;;;;;;40.53;8.70;;;;;;;11.63;34.76;92833.13;4979804;28;20067;-78
2023/01/19 07:22:55;;;;;;;45.80;8.10;;;;;;;11.84;34.96;92860.28;4998881;28;20145;-79
2023/01/19 07:25:20;;;;;;;49.05;9.43;;;;;;;11.91;34.53;92860.47;4978653;28;20405;-78
2023/01/19 07:27:45;;;;;;;65.85;10.02;;;;;;;12.22;34.63;92866.91;4998191;28;20096;-79
2023/01/19 07:30:11;;;;;;;50.67;7.82;;;;;;;11.96;33.86;92835.47;4997091;28;20861;-78
2023/01/19 07:32:37;;;;;;;46.85;8.18;;;;;;;12.21;33.96;92862.69;4996019;28;20200;-77
2023/01/19 07:35:03;;;;;;;51.83;8.32;;;;;;;11.99;34.26;92840.88;4995773;28;20054;-77
2023/01/19 07:37:28;;;;;;;38.92;7.72;;;;;;;12.37;33.95;92877.53;4994228;28;20148;-77
2023/01/19 07:39:54;;;;;;;52.83;8.70;;;;;;;12.68;33.60;92863.41;4982230;28;20038;-77
2023/01/19 07:42:19;;;;;;;47.25;7.68;;;;;;;12.60;33.40;92864.38;4988925;28;20034;-79
2023/01/19 07:44:44;;;;;;;51.42;9.02;;;;;;;12.59;33.17;92849.50;4973829;28;20726;-78
2023/01/19 07:47:11;;;;;;;34.55;7.20;;;;;;;12.34;33.32;92834.81;4991064;28;20133;-78
2023/01/19 07:49:37;;;;;;;33.72;6.65;;;;;;;12.69;33.06;92875.63;4995399;28;20084;-77
2023/01/19 07:52:03;;;;;;;49.33;7.72;;;;;;;12.44;32.98;92868.94;4992659;28;20065;-78
2023/01/19 07:54:28;;;;;;;42.20;9.20;;;;;;;12.59;32.99;92857.50;4996528;28;20521;-79
2023/01/19 07:56:54;;;;;;;45.30;6.95;;;;;;;12.69;33.07;92848.97;4994102;28;20037;-78
2023/01/19 07:59:19;;;;;;;46.92;8.32;;;;;;;13.02;33.21;92861.06;4984441;28;20073;-78
2023/01/19 08:01:45;;;;;;;41.97;7.75;;;;;;;12.96;32.50;92897.16;4992402;28;20080;-78
2023/01/19 08:04:10;;;;;;;49.95;8.35;;;;;;;12.71;32.50;92838.69;4993294;28;20033;-78
2023/01/19 08:06:37;;;;;;;42.30;7.93;;;;;;;13.05;32.46;92879.06;4995578;28;20065;-77
2023/01/19 08:09:04;;;;;;;49.75;9.85;;;;;;;13.10;31.97;92887.56;4991109;28;20129;-79
2023/01/19 08:11:30;;;;;;;42.90;7.13;;;;;;;12.75;31.59;92828.88;4992386;28;20085;-79
2023/01/19 08:13:56;;;;;;;42.13;7.10;;;;;;;12.95;32.74;92872.38;4990567;28;20862;-79
2023/01/19 08:16:21;;;;;;;50.33;8.30;;;;;;;12.82;32.24;92855.72;4991160;28;20046;-79
2023/01/19 08:18:47;;;;;;;37.72;7.72;;;;;;;12.76;32.67;92875.78;4992994;28;20029;-79
2023/01/19 08:21:12;;;;;;;49.40;8.43;;;;;;;13.07;32.12;92860.78;4976314;28;20924;-79
2023/01/19 08:23:38;;;;;;;41.53;8.00;;;;;;;13.11;32.36;92862.38;4989129;28;20807;-78
2023/01/19 08:26:22;;;;;;;36.58;7.47;;;;;;;13.37;31.61;92867.09;4994324;28;20442;-79
2023/01/19 08:28:49;;;;;;;47.72;7.45;;;;;;;12.96;32.05;92876.56;4975490;28;20033;-80
2023/01/19 08:31:14;;;;;;;56.90;8.65;;;;;;;12.88;32.06;92859.66;4992879;28;20141;-81
2023/01/19 08:33:41;;;;;;;43.08;8.02;;;;;;;13.39;32.47;92862.19;4976023;28;20549;-78
2023/01/19 08:36:07;;;;;;;51.90;8.30;;;;;;;13.81;31.41;92877.47;4976914;28;20029;-78
2023/01/19 08:38:33;;;;;;;49.13;8.18;;;;;;;13.26;31.85;92869.56;4994078;28;20421;-78
2023/01/19 08:40:58;;;;;;;50.30;7.97;;;;;;;13.31;32.45;92881.84;4992863;28;20064;-79
2023/01/19 08:43:23;;;;;;;55.33;8.57;;;;;;;13.46;31.13;92854.28;4995935;28;20510;-79
2023/01/19 08:45:51;;;;;;;50.85;7.90;;;;;;;13.81;30.92;92890.84;4976176;28;20034;-78
2023/01/19 08:48:21;;;;;;;63.85;9.60;;;;;;;13.59;31.42;92871.72;4995561;28;20430;-78
2023/01/19 08:50:48;;;;;;;45.80;7.63;;;;;;;13.36;31.57;92894.94;4995216;28;20123;-79
2023/01/19 08:53:14;;;;;;;57.85;8.75;;;;;;;13.70;32.37;92928.03;4993366;28;20128;-80
2023/01/19 08:55:40;;;;;;;40.78;7.03;;;;;;;13.47;31.46;92882.56;4993015;28;20037;-80
2023/01/19 08:58:07;;;;;;;38.80;7.55;;;;;;;13.59;31.85;92914.47;4992907;28;20030;-78
2023/01/19 09:00:34;;;;;;;46.42;8.68;;;;;;;13.33;31.92;92885.72;4972153;28;20141;-78
2023/01/19 09:03:01;;;;;;;42.97;7.45;;;;;;;13.42;32.13;92877.50;4972923;28;20034;-81
2023/01/19 09:05:27;;;;;;;34.33;7.38;;;;;;;13.72;31.86;92891.84;4973886;28;20100;-78
2023/01/19 09:07:53;;;;;;;44.22;7.20;;;;;;;13.86;31.23;92861.91;4973629;28;20445;-79
2023/01/19 09:10:18;;;;;;;38.15;8.07;;;;;;;14.07;31.49;92875.66;4973974;28;20045;-81
2023/01/19 09:12:45;;;;;;;44.33;7.30;;;;;;;14.20;30.89;92884.25;4971842;28;20026;-79
2023/01/19 09:15:13;;;;;;;48.00;7.97;;;;;;;14.23;31.22;92850.69;4974159;28;20034;-80
2023/01/19 09:17:42;;;;;;;34.17;6.93;;;;;;;14.13;31.20;92860.09;4974498;28;20533;-78
2023/01/19 09:20:08;;;;;;;36.17;7.57;;;;;;;14.08;30.61;92863.06;4974324;28;20758;-79
2023/01/19 09:22:34;;;;;;;34.47;5.93;;;;;;;13.90;31.09;92827.22;4974836;28;20042;-78
2023/01/19 09:24:59;;;;;;;27.05;6.50;;;;;;;13.90;30.72;92849.38;4971978;28;20493;-79
2023/01/19 09:27:24;;;;;;;30.90;6.15;;;;;;;13.95;30.71;92818.91;4975382;28;20034;-80
2023/01/19 09:29:53;;;;;;;36.70;5.25;;;;;;;14.03;30.72;92858.00;4973263;28;20109;-79
2023/01/19 09:32:19;;;;;;;43.33;7.22;;;;;;;13.22;31.50;92809.22;4971409;28;20935;-80
2023/01/19 09:34:45;;;;;;;30.20;5.95;;;;;;;13.38;32.33;92844.63;4973412;28;20069;-81
2023/01/19 09:37:10;;;;;;;32.83;6.88;;;;;;;13.50;31.94;92841.00;4988323;28;20723;-80
2023/01/19 09:39:36;;;;;;;27.77;5.97;;;;;;;13.70;32.70;92829.97;4972146;28;20064;-80
2023/01/19 09:42:17;;;;;;;31.83;6.22;;;;;;;14.14;31.78;92832.19;4971842;28;20038;-81
2023/01/19 09:44:47;;;;;;;31.33;4.88;;;;;;;14.18;31.17;92819.66;4971021;28;20045;-79
2023/01/19 09:47:15;;;;;;;21.63;5.00;;;;;;;14.42;30.97;92843.31;4970625;28;20085;-80
2023/01/19 09:49:46;;;;;;;33.85;4.13;;;;;;;14.18;30.69;92817.75;4978094;28;20050;-80
2023/01/19 09:52:13;;;;;;;28.45;4.63;;;;;;;13.69;31.35;92796.34;4975152;28;20048;-79
2023/01/19 09:54:51;;;;;;;30.58;5.50;;;;;;;13.99;31.97;92830.41;4977253;28;20018;-78
2023/01/19 09:57:17;;;;;;;37.80;4.65;;;;;;;13.90;32.83;92816.53;4967646;28;20071;-80
2023/01/19 09:59:46;;;;;;;31.50;5.40;;;;;;;13.78;31.49;92808.72;4975677;28;20045;-79
2023/01/19 10:02:40;;;;;;;30.92;6.25;;;;;;;13.91;30.81;92764.63;4998517;28;20074;-79
2023/01/19 10:05:27;;;;;;;26.17;5.03;;;;;;;13.58;32.06;92830.09;4999239;28;20136;-78
2023/01/19 10:08:07;;;;;;;30.33;5.43;;;;;;;13.88;31.50;92813.47;5000345;28;20073;-79
2023/01/19 10:10:35;;;;;;;23.88;3.80;;;;;;;13.95;32.18;92782.25;5000308;28;20034;-78
2023/01/19 10:13:18;;;;;;;27.55;4.93;;;;;;;14.02;32.66;92803.78;4997138;28;20184;-80
2023/01/19 10:15:55;;;;;;;20.75;4.70;;;;;;;13.98;32.10;92807.53;4999532;28;20032;-79
2023/01/19 10:18:33;;;;;;;31.75;5.43;;;;;;;13.70;31.89;92803.25;4998215;28;20034;-80
2023/01/19 10:21:20;;;;;;;25.77;4.78;;;;;;;13.80;31.98;92791.19;4999605;28;20046;-79
2023/01/19 10:24:13;;;;;;;25.00;4.60;;;;;;;13.96;32.41;92809.75;4982048;28;20113;-80
2023/01/19 10:26:44;;;;;;;18.75;4.63;;;;;;;14.08;32.73;92788.19;5001137;28;20628;-79
2023/01/19 10:29:35;;;;;;;24.65;4.80;;;;;;;14.16;31.51;92821.94;4999725;28;20514;-78
2023/01/19 10:32:12;;;;;;;32.85;5.25;;;;;;;13.96;31.41;92809.75;4999630;28;20402;-79
2023/01/19 10:34:38;;;;;;;28.42;5.50;;;;;;;13.74;32.28;92816.66;4972401;28;20049;-80
2023/01/19 10:37:14;;;;;;;36.10;6.78;;;;;;;13.80;32.00;92814.47;4997487;28;20030;-79
2023/01/19 10:39:41;;;;;;;26.38;5.97;;;;;;;13.56;32.41;92813.66;4995456;28;20034;-79
2023/01/19 10:42:12;;;;;;;15.70;5.80;;;;;;;13.51;31.95;92773.88;4992559;28;20919;-78
2023/01/19 10:44:37;;;;;;;20.75;5.03;;;;;;;13.50;32.48;92815.06;4989555;28;20034;-79
2023/01/19 10:47:10;;;;;;;25.70;4.72;;;;;;;13.55;32.42;92801.41;4993546;28;20049;-79
2023/01/19 10:49:39;;;;;;;22.83;4.38;;;;;;;13.64;32.01;92777.19;4991813;28;20042;-78
2023/01/19 10:52:17;;;;;;;20.58;3.65;;;;;;;13.55;32.31;92780.03;4996011;28;20068;-79
2023/01/19 10:54:43;;;;;;;21.88;4.47;;;;;;;13.55;31.54;92780.03;4972482;28;20686;-79
2023/01/19 10:57:12;;;;;;;22.35;3.63;;;;;;;13.53;33.17;92757.50;4998121;28;20041;-80
2023/01/19 10:59:45;;;;;;;31.98;3.97;;;;;;;13.62;32.04;92790.13;4996590;28;20038;-80
2023/01/19 11:02:14;;;;;;;21.77;4.38;;;;;;;13.58;32.68;92799.94;4997179;28;20049;-79
2023/01/19 11:04:40;;;;;;;22.67;3.70;;;;;;;13.28;33.31;92794.47;4995518;28;20084;-79
2023/01/19 11:07:19;;;;;;;22.55;3.97;;;;;;;13.50;32.82;92772.31;4980084;28;20115;-79
2023/01/19 11:09:45;;;;;;;20.98;4.32;;;;;;;13.44;32.32;92768.44;4994754;28;20025;-79
2023/01/19 11:12:22;;;;;;;21.92;4.35;;;;;;;13.62;32.86;92771.41;4995983;28;20132;-80
2023/01/19 11:14:49;;;;;;;25.80;4.30;;;;;;;13.42;32.03;92724.50;4995967;28;20042;-81
2023/01/19 11:17:21;;;;;;;24.48;4.45;;;;;;;13.48;32.70;92755.91;4981167;28;20041;-79
2023/01/19 11:19:59;;;;;;;24.48;3.55;;;;;;;13.30;32.54;92739.56;4996645;28;20097;-81
2023/01/19 11:22:31;;;;;;;24.73;3.78;;;;;;;13.46;32.60;92747.47;4996054;28;20054;-80
2023/01/19 11:25:04;;;;;;;22.00;3.92;;;;;;;13.50;33.44;92736.84;4995553;28;20450;-80
2023/01/19 11:27:33;;;;;;;30.77;4.78;;;;;;;13.44;32.18;92744.41;4999458;28;20017;-81
2023/01/19 11:30:09;;;;;;;20.02;3.25;;;;;;;13.49;32.42;92741.44;4998545;28;20045;-78
2023/01/19 11:32:35;;;;;;;18.90;4.07;;;;;;;13.25;32.09;92709.75;4973530;28;20552;-80
2023/01/19 11:35:22;;;;;;;16.38;3.63;;;;;;;13.38;32.11;92726.34;4979588;28;20064;-80
2023/01/19 11:37:48;;;;;;;22.73;4.53;;;;;;;13.25;32.06;92733.75;4999620;28;20581;-79